Terminal Aerodrome Forecast
Issued by NWS La Crosse, WI

Home | Current Version | Previous Version | Text Only | Print | Product List | Glossary On
Versions: 1 2 3 4 5 6 7 8 9 10 11 12 13 14 15 16 17 18 19 20 21 22 23 24 25
000
FTUS43 KARX 231130
TAFLSE
TAF
KLSE 231130Z 2312/2412 VRB03KT 4SM -DZ BR OVC006
      TEMPO 2312/2316 2SM BR OVC004
     FM240200 VRB03KT 4SM BR OVC010=

USA.gov is the U.S. government's official web portal to all federal, state and local government web resources and services.